Time;durP1;ratioP1;P1;durP2;ratioP2;P2;SDS_P1;SDS_P2;PMS_P1;PMS_P2;Temp;Humidity;BMP_temperature;BMP_pressure;BME280_temperature;BME280_humidity;BME280_pressure;Samples;Min_cycle;Max_cycle;Signal;HPM_P1;HPM_P2
2022/05/06 00:00:12;;;;;;;12.23;6.90;;;12.10;99.90;;;;;;5090694;28;20940;-78
2022/05/06 00:02:39;;;;;;;9.83;7.43;;;12.10;99.90;;;;;;5075449;28;20179;-78
2022/05/06 00:05:10;;;;;;;10.57;6.70;;;12.00;99.90;;;;;;5078146;28;20421;-78
2022/05/06 00:07:37;;;;;;;11.40;6.43;;;11.90;99.90;;;;;;5094940;28;20445;-78
2022/05/06 00:10:04;;;;;;;9.30;6.30;;;11.90;99.90;;;;;;5077814;28;20465;-78
2022/05/06 00:12:30;;;;;;;11.40;7.53;;;11.90;99.90;;;;;;5078395;28;20787;-79
2022/05/06 00:14:56;;;;;;;10.63;6.70;;;11.90;99.90;;;;;;5077767;28;20851;-78
2022/05/06 00:17:22;;;;;;;12.77;7.50;;;11.90;99.90;;;;;;5094395;28;20516;-78
2022/05/06 00:19:48;;;;;;;10.40;6.10;;;11.90;99.90;;;;;;5094621;28;20537;-78
2022/05/06 00:22:17;;;;;;;13.80;7.77;;;11.80;99.90;;;;;;5093624;28;20175;-78
2022/05/06 00:24:43;;;;;;;13.00;8.00;;;11.90;99.90;;;;;;5094572;28;20175;-78
2022/05/06 00:27:09;;;;;;;11.37;6.90;;;11.80;99.90;;;;;;5095274;28;20444;-79
2022/05/06 00:29:35;;;;;;;10.03;7.30;;;11.80;99.90;;;;;;5094522;28;20457;-78
2022/05/06 00:32:02;;;;;;;11.67;6.23;;;11.80;99.90;;;;;;5094734;28;20835;-78
2022/05/06 00:34:28;;;;;;;9.67;6.93;;;11.70;99.90;;;;;;5094445;28;20385;-78
2022/05/06 00:36:55;;;;;;;11.20;6.90;;;11.60;99.90;;;;;;5077647;28;20791;-78
2022/05/06 00:39:21;;;;;;;11.20;7.30;;;11.60;99.90;;;;;;5094829;28;20867;-78
2022/05/06 00:41:47;;;;;;;10.13;8.00;;;11.70;99.90;;;;;;5077679;28;20436;-78
2022/05/06 00:44:13;;;;;;;10.53;7.00;;;11.80;99.90;;;;;;5094009;28;20429;-78
2022/05/06 00:46:39;;;;;;;12.43;7.67;;;11.80;99.90;;;;;;5093688;28;20429;-79
2022/05/06 00:49:14;;;;;;;11.30;6.90;;;11.90;99.90;;;;;;5094616;28;20206;-78
2022/05/06 00:51:40;;;;;;;12.33;7.53;;;11.90;99.90;;;;;;5077369;28;20185;-79
2022/05/06 00:54:07;;;;;;;11.07;6.90;;;12.00;99.90;;;;;;5077009;28;21012;-78
2022/05/06 00:56:33;;;;;;;10.67;7.63;;;12.10;99.90;;;;;;5077141;28;20444;-78
2022/05/06 00:58:59;;;;;;;10.90;7.27;;;12.20;99.90;;;;;;5077345;28;20460;-79
2022/05/06 01:01:25;;;;;;;10.87;6.77;;;12.30;99.90;;;;;;5093350;28;20421;-78
2022/05/06 01:03:52;;;;;;;12.37;7.87;;;12.30;99.90;;;;;;5093932;28;20190;-79
2022/05/06 01:06:18;;;;;;;10.77;7.50;;;12.30;99.90;;;;;;5093759;28;20203;-78
2022/05/06 01:08:44;;;;;;;12.27;8.53;;;12.30;99.90;;;;;;5077915;28;20505;-78
2022/05/06 01:11:13;;;;;;;11.43;6.93;;;12.40;99.90;;;;;;5094632;28;20424;-78
2022/05/06 01:13:45;;;;;;;15.77;8.10;;;12.40;99.90;;;;;;5076390;28;20424;-78
2022/05/06 01:16:12;;;;;;;11.60;7.53;;;12.40;99.90;;;;;;5077154;28;20441;-78
2022/05/06 01:18:38;;;;;;;10.50;7.20;;;12.30;99.90;;;;;;5077203;28;20426;-79
2022/05/06 01:21:06;;;;;;;10.27;6.60;;;12.20;99.90;;;;;;5077464;28;20500;-78
2022/05/06 01:23:33;;;;;;;8.90;6.93;;;12.00;99.90;;;;;;5076660;28;20939;-78
2022/05/06 01:25:59;;;;;;;9.70;6.67;;;11.90;99.90;;;;;;5077114;28;20790;-78
2022/05/06 01:28:26;;;;;;;13.03;7.27;;;11.80;99.90;;;;;;5076306;28;20417;-78
2022/05/06 01:31:00;;;;;;;12.10;7.30;;;11.70;99.90;;;;;;5076628;28;20512;-78
2022/05/06 01:33:29;;;;;;;11.43;8.13;;;11.60;99.90;;;;;;5076108;28;21006;-78
2022/05/06 01:35:58;;;;;;;11.50;7.70;;;11.50;99.90;;;;;;5076280;28;20421;-78
2022/05/06 01:38:31;;;;;;;10.87;8.20;;;11.50;99.90;;;;;;5076808;28;20443;-78
2022/05/06 01:41:04;;;;;;;11.43;7.53;;;11.50;99.90;;;;;;5075812;28;20508;-78
2022/05/06 01:43:43;;;;;;;17.10;8.87;;;11.50;99.90;;;;;;5076674;28;20416;-78
2022/05/06 01:46:13;;;;;;;13.07;7.90;;;11.50;99.90;;;;;;5075974;28;20438;-78
2022/05/06 01:48:41;;;;;;;16.00;8.40;;;11.50;99.90;;;;;;5076283;28;20417;-78
2022/05/06 01:51:13;;;;;;;11.70;7.90;;;11.40;99.90;;;;;;5075961;28;20424;-78
2022/05/06 01:53:39;;;;;;;10.80;6.87;;;11.30;99.90;;;;;;5076013;28;20447;-78
2022/05/06 01:56:07;;;;;;;13.63;8.50;;;11.30;99.90;;;;;;5092761;28;20425;-77
2022/05/06 01:58:33;;;;;;;12.50;8.13;;;11.30;99.90;;;;;;5076826;28;20178;-78
2022/05/06 02:00:58;;;;;;;12.70;8.33;;;11.30;99.90;;;;;;5093258;28;20409;-78
2022/05/06 02:06:09;;;;;;;12.07;7.93;;;11.20;99.90;;;;;;5076471;28;20232;-78
2022/05/06 02:08:34;;;;;;;12.33;7.40;;;11.20;99.90;;;;;;5091876;28;20415;-78
2022/05/06 02:11:01;;;;;;;10.77;7.00;;;11.10;99.90;;;;;;5091552;28;20824;-78
2022/05/06 02:13:27;;;;;;;11.13;7.33;;;11.00;99.90;;;;;;5091616;28;20228;-78
2022/05/06 02:15:53;;;;;;;12.53;7.97;;;11.00;99.90;;;;;;5074804;28;20422;-77
2022/05/06 02:18:19;;;;;;;12.27;8.07;;;11.00;99.90;;;;;;5075626;28;20421;-78
2022/05/06 02:20:45;;;;;;;13.70;7.93;;;10.90;99.90;;;;;;5075601;28;20503;-78
2022/05/06 02:23:12;;;;;;;10.07;7.27;;;10.90;99.90;;;;;;5092001;28;20787;-78
2022/05/06 02:25:39;;;;;;;15.37;8.33;;;10.80;99.90;;;;;;5058945;28;20463;-78
2022/05/06 02:28:07;;;;;;;13.20;8.70;;;10.80;99.90;;;;;;5092262;28;20443;-78
2022/05/06 02:33:23;;;;;;;13.53;8.50;;;10.70;99.90;;;;;;5075722;28;20435;-77
2022/05/06 02:35:50;;;;;;;12.43;8.77;;;10.70;99.90;;;;;;5093922;28;20424;-79
2022/05/06 02:38:15;;;;;;;13.00;7.93;;;10.60;99.90;;;;;;5077863;28;20428;-78
2022/05/06 02:40:41;;;;;;;14.90;8.93;;;10.60;99.90;;;;;;5077136;28;20997;-78
2022/05/06 02:43:10;;;;;;;12.03;7.93;;;10.50;99.90;;;;;;5093837;28;20486;-78
2022/05/06 02:45:36;;;;;;;14.70;9.30;;;10.50;99.90;;;;;;5077076;28;20280;-78
2022/05/06 02:48:03;;;;;;;15.60;10.50;;;10.50;99.90;;;;;;5076606;28;20501;-78
2022/05/06 02:50:29;;;;;;;11.87;7.90;;;10.60;99.90;;;;;;5076376;28;20469;-78
2022/05/06 02:52:55;;;;;;;11.43;8.40;;;10.60;99.90;;;;;;5093775;28;20470;-78
2022/05/06 02:55:23;;;;;;;13.30;9.57;;;10.60;99.90;;;;;;5093010;28;20795;-79
2022/05/06 02:57:52;;;;;;;13.87;7.93;;;10.50;99.90;;;;;;5076170;28;20254;-78
2022/05/06 03:00:18;;;;;;;13.33;8.50;;;10.50;99.90;;;;;;5075712;28;20487;-77
2022/05/06 03:02:44;;;;;;;12.90;8.50;;;10.50;99.90;;;;;;5075608;28;20916;-78
2022/05/06 03:05:10;;;;;;;12.83;8.87;;;10.40;99.90;;;;;;5092346;28;20475;-78
2022/05/06 03:07:36;;;;;;;11.50;7.80;;;10.40;99.90;;;;;;5092846;28;20296;-78
2022/05/06 03:10:03;;;;;;;11.00;7.90;;;10.40;99.90;;;;;;5075381;28;20510;-77
2022/05/06 03:12:30;;;;;;;12.70;8.93;;;10.30;99.90;;;;;;5075602;28;20507;-78
2022/05/06 03:14:58;;;;;;;12.13;8.07;;;10.30;99.90;;;;;;5092018;28;20530;-78
2022/05/06 03:17:24;;;;;;;9.93;7.80;;;10.30;99.90;;;;;;5075112;28;20445;-78
2022/05/06 03:19:50;;;;;;;13.03;8.30;;;10.30;99.90;;;;;;5075242;28;20899;-78
2022/05/06 03:22:17;;;;;;;13.03;8.47;;;10.30;99.90;;;;;;5074888;28;20417;-78
2022/05/06 03:24:43;;;;;;;13.10;8.63;;;10.30;99.90;;;;;;5075053;28;20488;-78
2022/05/06 03:27:59;;;;;;;12.90;8.33;;;10.20;99.90;;;;;;5074766;28;20445;-78
2022/05/06 03:29:55;;;;;;;14.20;8.90;;;10.20;99.90;;;;;;5075284;28;20476;-78
2022/05/06 03:32:22;;;;;;;14.07;8.90;;;10.10;99.90;;;;;;5091370;28;20873;-78
2022/05/06 03:34:49;;;;;;;15.53;9.53;;;10.10;99.90;;;;;;5095840;22;20528;-85
2022/05/06 03:37:15;;;;;;;16.20;9.43;;;10.10;99.90;;;;;;5051184;28;21140;-85
2022/05/06 03:39:40;;;;;;;13.03;8.63;;;10.00;99.90;;;;;;5050612;28;20515;-85
2022/05/06 03:42:06;;;;;;;15.93;9.97;;;10.00;99.90;;;;;;5050524;28;20414;-85
2022/05/06 03:44:32;;;;;;;16.47;11.03;;;10.00;99.90;;;;;;5050689;28;20196;-85
2022/05/06 03:46:57;;;;;;;13.80;9.80;;;9.90;99.90;;;;;;5051776;28;20410;-85
2022/05/06 03:49:23;;;;;;;13.80;10.00;;;9.90;99.90;;;;;;5051849;28;20203;-85
2022/05/06 03:51:49;;;;;;;16.27;10.90;;;9.90;99.90;;;;;;5050290;28;20669;-85
2022/05/06 03:54:16;;;;;;;16.27;10.13;;;;;;;;;;5050458;28;20364;-85
2022/05/06 03:56:42;;;;;;;16.30;9.83;;;9.80;99.90;;;;;;5050291;28;20201;-85
2022/05/06 03:59:07;;;;;;;14.73;9.57;;;9.80;99.90;;;;;;5050510;28;20517;-84
2022/05/06 04:01:33;;;;;;;17.00;8.93;;;9.80;99.90;;;;;;5050174;28;20435;-85
2022/05/06 04:03:59;;;;;;;15.07;9.30;;;9.80;99.90;;;;;;5050419;28;20204;-85
2022/05/06 04:06:26;;;;;;;17.00;10.13;;;9.70;99.90;;;;;;5051527;28;20229;-85
2022/05/06 04:08:52;;;;;;;17.37;11.10;;;9.70;99.90;;;;;;5051576;28;20215;-85
2022/05/06 04:11:21;;;;;;;16.90;10.47;;;9.60;99.90;;;;;;5051586;28;20398;-84
2022/05/06 04:13:47;;;;;;;16.20;10.03;;;9.70;99.90;;;;;;5050261;28;20438;-85
2022/05/06 04:16:14;;;;;;;15.13;10.43;;;9.70;99.90;;;;;;5050308;28;20796;-85
2022/05/06 04:18:40;;;;;;;17.63;10.43;;;9.70;99.90;;;;;;5050320;28;20509;-85
2022/05/06 04:23:50;;;;;;;18.07;10.67;;;9.70;99.90;;;;;;5051698;28;20441;-85
2022/05/06 04:26:15;;;;;;;27.30;11.67;;;9.70;99.90;;;;;;5050190;28;20422;-85
2022/05/06 04:28:41;;;;;;;14.87;10.57;;;9.80;99.90;;;;;;5050060;28;20184;-85
2022/05/06 04:31:07;;;;;;;13.70;9.43;;;9.70;99.90;;;;;;5051270;28;20177;-84
2022/05/06 04:33:34;;;;;;;18.30;11.67;;;9.80;99.90;;;;;;5049907;28;20698;-85
2022/05/06 04:36:00;;;;;;;17.03;11.50;;;9.80;99.90;;;;;;5051418;28;20766;-84
2022/05/06 04:38:26;;;;;;;17.27;10.63;;;9.90;99.90;;;;;;5051421;28;20407;-85
2022/05/06 04:40:56;;;;;;;16.30;9.73;;;10.00;99.90;;;;;;5051499;28;20927;-85
2022/05/06 04:43:22;;;;;;;20.10;10.10;;;10.00;99.90;;;;;;5051408;28;20850;-85
2022/05/06 04:45:49;;;;;;;16.90;10.90;;;10.00;99.90;;;;;;5051222;28;20417;-85
2022/05/06 04:48:15;;;;;;;16.67;11.97;;;10.10;99.90;;;;;;5050774;28;20962;-85
2022/05/06 04:50:42;;;;;;;20.70;11.50;;;10.10;99.90;;;;;;5054547;28;20957;-85
2022/05/06 04:53:09;;;;;;;23.43;14.37;;;10.20;99.90;;;;;;5054751;28;20799;-85
2022/05/06 04:55:41;;;;;;;27.00;16.17;;;10.30;99.90;;;;;;5053360;28;20429;-85
2022/05/06 04:58:07;;;;;;;19.87;13.50;;;10.40;99.90;;;;;;5053689;28;20501;-84
2022/05/06 05:00:33;;;;;;;27.53;16.30;;;10.40;99.90;;;;;;5053244;28;20428;-84
2022/05/06 05:03:00;;;;;;;24.90;14.80;;;10.50;99.90;;;;;;5054535;28;20547;-85
2022/05/06 05:05:26;;;;;;;26.67;13.80;;;10.50;99.90;;;;;;5053260;28;20461;-85
2022/05/06 05:07:53;;;;;;;26.60;15.83;;;10.60;99.90;;;;;;5054393;28;20785;-85
2022/05/06 05:10:20;;;;;;;25.60;15.90;;;10.60;99.90;;;;;;5053117;28;21030;-85
2022/05/06 05:12:45;;;;;;;26.47;17.00;;;10.70;99.90;;;;;;5054370;28;20405;-84
2022/05/06 05:15:11;;;;;;;29.43;19.50;;;10.80;99.90;;;;;;5053069;28;20480;-84
2022/05/06 05:17:49;;;;;;;33.17;20.80;;;10.90;99.90;;;;;;5052890;28;20745;-85
2022/05/06 05:20:15;;;;;;;33.60;20.90;;;11.00;99.90;;;;;;5052910;28;20183;-85
2022/05/06 05:22:42;;;;;;;35.07;21.47;;;11.10;99.90;;;;;;5052580;28;20454;-85
2022/05/06 05:25:12;;;;;;;43.23;24.50;;;11.20;99.90;;;;;;5052827;28;20441;-85
2022/05/06 05:27:38;;;;;;;35.70;23.80;;;11.30;99.90;;;;;;5052994;28;20425;-84
2022/05/06 05:30:06;;;;;;;38.50;24.50;;;11.50;99.90;;;;;;5052593;28;20538;-85
2022/05/06 05:32:32;;;;;;;45.27;25.20;;;11.60;99.90;;;;;;5052740;28;20793;-85
2022/05/06 05:35:10;;;;;;;33.10;23.07;;;11.70;99.90;;;;;;5053691;28;20803;-85
2022/05/06 05:37:36;;;;;;;32.87;19.07;;;11.90;99.90;;;;;;5054005;28;20402;-85
2022/05/06 05:40:03;;;;;;;28.77;18.07;;;11.90;99.90;;;;;;5052447;28;20422;-85
2022/05/06 05:42:29;;;;;;;30.53;18.80;;;;;;;;;;5053832;28;20640;-85
2022/05/06 05:50:34;;;;;;;30.23;17.23;;;12.40;99.90;;;;;;5053347;28;20457;-85
2022/05/06 05:53:44;;;;;;;33.93;20.30;;;12.50;99.90;;;;;;5053654;28;20409;-85
2022/05/06 05:56:35;;;;;;;39.63;24.50;;;12.70;99.90;;;;;;5051835;28;20453;-85
2022/05/06 05:59:22;;;;;;;35.60;22.97;;;12.90;99.90;;;;;;5052315;28;20428;-85
2022/05/06 06:01:57;;;;;;;34.10;22.90;;;13.00;99.90;;;;;;5052753;28;20402;-85
2022/05/06 06:04:41;;;;;;;;;;;;;;;;;;;;;
2022/05/06 06:07:07;;;;;;;34.80;22.60;;;13.20;99.90;;;;;;5053243;28;20884;-84
2022/05/06 06:13:37;;;;;;;27.90;20.20;;;13.40;99.90;;;;;;4993147;28;20209;-85
2022/05/06 06:16:34;;;;;;;;;;;;;;;;;;;;;
2022/05/06 06:19:15;;;;;;;36.57;21.37;;;13.70;99.90;;;;;;5053160;28;20402;-84
2022/05/06 06:25:04;;;;;;;36.03;22.57;;;14.00;99.90;;;;;;5076127;22;20605;-77
2022/05/06 06:27:31;;;;;;;34.00;19.60;;;13.90;99.90;;;;;;5048565;28;20470;-77
2022/05/06 06:29:57;;;;;;;30.90;20.90;;;14.10;99.90;;;;;;5031787;28;20498;-77
2022/05/06 06:32:23;;;;;;;30.30;20.20;;;14.30;99.90;;;;;;5032519;28;20415;-76
2022/05/06 06:34:49;;;;;;;32.53;21.30;;;14.40;99.90;;;;;;5032053;28;20180;-77
2022/05/06 06:37:14;;;;;;;28.47;21.03;;;14.60;99.90;;;;;;5032141;28;20446;-77
2022/05/06 06:39:40;;;;;;;31.20;20.50;;;14.70;99.90;;;;;;5032043;28;20431;-79
2022/05/06 06:42:07;;;;;;;34.63;22.00;;;14.80;99.90;;;;;;5031627;28;20190;-77
2022/05/06 06:44:33;;;;;;;33.40;20.67;;;14.80;99.90;;;;;;5031733;28;20557;-77
2022/05/06 06:46:59;;;;;;;28.83;21.60;;;14.80;99.90;;;;;;5031768;28;20439;-76
2022/05/06 06:49:25;;;;;;;29.77;20.47;;;14.90;99.90;;;;;;5032753;28;20204;-76
2022/05/06 06:51:50;;;;;;;32.37;20.63;;;15.00;99.90;;;;;;5031665;28;20691;-76
2022/05/06 06:54:16;;;;;;;34.97;22.20;;;15.10;99.90;;;;;;5032517;28;20444;-78
2022/05/06 06:56:42;;;;;;;35.17;21.53;;;15.30;99.90;;;;;;5032964;28;20200;-77
2022/05/06 06:59:08;;;;;;;35.87;21.67;;;15.30;99.90;;;;;;5031503;28;20215;-77
2022/05/06 07:01:34;;;;;;;32.63;21.17;;;15.50;99.90;;;;;;5030640;28;20230;-76
2022/05/06 07:04:00;;;;;;;32.30;20.70;;;15.50;99.90;;;;;;5031136;28;20427;-76
2022/05/06 07:11:56;;;;;;;30.83;21.77;;;15.90;99.90;;;;;;5031356;28;20477;-76
2022/05/06 07:14:23;;;;;;;36.53;21.63;;;16.00;99.90;;;;;;5030761;28;20428;-77
2022/05/06 07:16:49;;;;;;;27.17;20.40;;;16.10;99.90;;;;;;5030523;28;20461;-77
2022/05/06 07:19:15;;;;;;;33.37;22.60;;;16.20;99.90;;;;;;5030731;28;20776;-76
2022/05/06 07:21:41;;;;;;;29.47;19.53;;;16.30;99.90;;;;;;5030828;28;20430;-77
2022/05/06 07:24:07;;;;;;;30.83;21.30;;;16.30;99.90;;;;;;5030714;28;20439;-77
2022/05/06 07:26:33;;;;;;;27.73;19.07;;;16.50;99.90;;;;;;5030506;28;20234;-76
2022/05/06 07:28:59;;;;;;;27.97;20.43;;;16.60;99.90;;;;;;5030809;28;20549;-77
2022/05/06 07:31:25;;;;;;;26.97;19.80;;;16.70;99.90;;;;;;5030754;28;20187;-76
2022/05/06 07:33:50;;;;;;;31.17;19.67;;;16.90;99.90;;;;;;5030989;28;20176;-76
2022/05/06 07:36:16;;;;;;;32.13;21.40;;;17.00;99.90;;;;;;5030461;28;20234;-76
2022/05/06 07:38:42;;;;;;;34.20;20.90;;;17.00;99.90;;;;;;5030311;28;20176;-75
2022/05/06 07:41:08;;;;;;;32.87;21.53;;;16.90;99.90;;;;;;5030447;28;20258;-75
2022/05/06 07:43:37;;;;;;;26.60;19.40;;;17.00;99.90;;;;;;5030016;28;20967;-76
2022/05/06 07:46:03;;;;;;;30.87;21.27;;;17.00;99.90;;;;;;5029660;28;20176;-76
2022/05/06 07:48:28;;;;;;;28.77;22.80;;;17.20;99.90;;;;;;5030087;28;20419;-77
2022/05/06 07:50:54;;;;;;;33.03;22.50;;;17.30;99.90;;;;;;5030468;28;20211;-76
2022/05/06 07:53:20;;;;;;;33.47;23.07;;;17.40;99.90;;;;;;5031008;28;20569;-77
2022/05/06 07:55:46;;;;;;;31.80;22.80;;;17.30;99.90;;;;;;5030554;28;20176;-79
2022/05/06 07:58:12;;;;;;;35.37;21.90;;;17.50;99.90;;;;;;5030890;28;20561;-77
2022/05/06 08:00:38;;;;;;;32.47;21.20;;;18.20;99.90;;;;;;5030875;28;20473;-77
2022/05/06 08:05:49;;;;;;;35.47;22.90;;;19.80;99.90;;;;;;5040097;28;20206;-77
2022/05/06 08:08:16;;;;;;;35.00;23.90;;;20.50;99.90;;;;;;5042778;28;20439;-77
2022/05/06 08:10:42;;;;;;;31.70;22.10;;;21.20;99.90;;;;;;5030943;28;21028;-76
2022/05/06 08:13:08;;;;;;;29.50;20.07;;;22.00;99.90;;;;;;5031052;28;20423;-77
2022/05/06 08:15:34;;;;;;;26.90;20.97;;;22.30;99.90;;;;;;5031408;28;20804;-77
2022/05/06 08:18:00;;;;;;;32.13;23.20;;;23.00;99.90;;;;;;5030770;28;20207;-77
2022/05/06 08:20:26;;;;;;;32.43;21.57;;;23.90;99.90;;;;;;5031132;28;20686;-77
2022/05/06 08:22:51;;;;;;;29.27;21.53;;;24.50;99.90;;;;;;5031442;28;20458;-77
2022/05/06 08:25:17;;;;;;;28.23;20.80;;;25.30;99.90;;;;;;5035901;28;20442;-78
2022/05/06 08:27:44;;;;;;;27.50;20.33;;;26.20;99.90;;;;;;5035409;28;20200;-78
2022/05/06 08:30:12;;;;;;;29.13;19.47;;;26.90;99.90;;;;;;5035147;28;20467;-77
2022/05/06 08:32:39;;;;;;;27.00;18.60;;;27.40;97.40;;;;;;5034518;28;20426;-77
2022/05/06 08:35:07;;;;;;;25.23;18.30;;;27.70;93.50;;;;;;5033358;28;20419;-76
2022/05/06 08:37:46;;;;;;;26.07;18.67;;;28.20;88.90;;;;;;5033816;28;20439;-78
2022/05/06 08:40:18;;;;;;;24.17;17.80;;;28.80;85.60;;;;;;5034627;28;20430;-78
2022/05/06 08:42:44;;;;;;;21.60;17.57;;;29.20;78.80;;;;;;5035271;28;20431;-78
2022/05/06 08:50:51;;;;;;;26.40;19.07;;;30.70;66.10;;;;;;5036757;28;20477;-77
2022/05/06 08:53:17;;;;;;;24.93;19.77;;;30.60;63.80;;;;;;5035679;28;20461;-78
2022/05/06 08:55:43;;;;;;;23.70;18.97;;;30.90;65.40;;;;;;5034776;28;20542;-77
2022/05/06 08:58:09;;;;;;;22.73;17.23;;;31.10;59.50;;;;;;5035476;28;20482;-77
2022/05/06 09:00:35;;;;;;;26.00;17.43;;;31.40;58.20;;;;;;5034905;28;20252;-77
2022/05/06 09:03:01;;;;;;;21.27;17.60;;;31.80;56.30;;;;;;5035411;28;20926;-77
2022/05/06 09:05:27;;;;;;;26.37;20.33;;;31.60;54.60;;;;;;5034762;28;20517;-77
2022/05/06 09:08:02;;;;;;;23.83;18.40;;;31.80;54.00;;;;;;5035330;28;20262;-77
2022/05/06 09:10:28;;;;;;;23.47;18.10;;;32.80;53.30;;;;;;5035052;28;20270;-78
2022/05/06 09:12:56;;;;;;;24.13;17.87;;;32.80;53.90;;;;;;5035275;28;20415;-78
2022/05/06 09:18:07;;;;;;;22.83;16.93;;;34.10;49.60;;;;;;5036271;28;20806;-77
2022/05/06 09:20:34;;;;;;;25.40;17.80;;;34.10;47.80;;;;;;5034370;28;20493;-78
2022/05/06 09:23:28;;;;;;;21.30;16.60;;;34.00;47.00;;;;;;5034642;28;20435;-78
2022/05/06 09:25:55;;;;;;;20.93;15.67;;;34.60;46.50;;;;;;5034429;28;20529;-77
2022/05/06 09:28:32;;;;;;;20.70;16.20;;;35.10;43.50;;;;;;5034630;28;20529;-76
2022/05/06 09:30:59;;;;;;;17.97;14.57;;;35.30;42.60;;;;;;5034440;28;20466;-77
2022/05/06 09:33:25;;;;;;;20.07;16.10;;;35.90;41.90;;;;;;5063042;28;20949;-78
2022/05/06 09:35:51;;;;;;;20.10;16.93;;;36.20;40.50;;;;;;5052734;28;20430;-77
2022/05/06 09:38:17;;;;;;;24.33;17.50;;;36.60;41.70;;;;;;5055118;28;20483;-78
2022/05/06 09:40:43;;;;;;;17.83;15.17;;;36.40;39.80;;;;;;5054729;28;20194;-78
2022/05/06 09:43:16;;;;;;;20.13;16.83;;;37.10;39.80;;;;;;5071879;28;20192;-78
2022/05/06 09:45:44;;;;;;;20.70;17.10;;;37.50;39.40;;;;;;5055396;28;20563;-79
2022/05/06 09:48:11;;;;;;;21.10;18.80;;;37.60;38.60;;;;;;5055597;28;20481;-78
2022/05/06 09:50:44;;;;;;;16.90;13.80;;;37.90;37.90;;;;;;5055245;28;20524;-78
2022/05/06 09:53:12;;;;;;;16.10;14.37;;;38.50;35.70;;;;;;5054398;28;20940;-78
2022/05/06 09:55:44;;;;;;;15.97;14.20;;;38.50;35.00;;;;;;5054883;28;20513;-77
2022/05/06 09:58:11;;;;;;;16.80;13.60;;;38.70;34.00;;;;;;5055660;28;20443;-78
2022/05/06 10:00:40;;;;;;;17.63;14.37;;;38.30;35.00;;;;;;5058967;28;20442;-78
2022/05/06 10:03:07;;;;;;;16.53;14.27;;;38.60;34.90;;;;;;5057552;28;20508;-78
2022/05/06 10:05:36;;;;;;;16.47;12.80;;;39.00;33.80;;;;;;5056949;28;20495;-78
2022/05/06 10:08:20;;;;;;;17.50;13.27;;;39.60;33.70;;;;;;5057223;28;20480;-78
2022/05/06 10:10:55;;;;;;;18.43;11.50;;;39.40;32.30;;;;;;5057930;28;20491;-78
2022/05/06 10:13:22;;;;;;;12.20;10.53;;;39.80;30.70;;;;;;5057992;28;20460;-78
2022/05/06 10:15:51;;;;;;;14.10;11.60;;;39.60;31.20;;;;;;5057486;28;20448;-78
2022/05/06 10:18:37;;;;;;;14.23;10.40;;;39.40;30.00;;;;;;5056914;28;20499;-78
2022/05/06 10:21:04;;;;;;;14.13;10.77;;;39.50;29.20;;;;;;5056325;28;20422;-77
2022/05/06 10:23:54;;;;;;;14.60;12.50;;;39.10;30.90;;;;;;5055838;28;20449;-79
2022/05/06 10:26:41;;;;;;;14.50;13.00;;;39.30;33.10;;;;;;5056727;28;20450;-78
2022/05/06 10:34:57;;;;;;;14.87;12.23;;;36.90;34.10;;;;;;5057987;28;20421;-78
2022/05/06 10:37:26;;;;;;;13.60;11.70;;;36.30;32.50;;;;;;5056672;28;20430;-78
2022/05/06 10:39:52;;;;;;;14.53;11.97;;;36.20;34.20;;;;;;5055946;28;20422;-77
2022/05/06 10:42:30;;;;;;;12.80;11.00;;;35.00;34.00;;;;;;5051521;28;20463;-77
2022/05/06 10:44:59;;;;;;;13.80;11.10;;;33.80;33.10;;;;;;5051174;28;20429;-77
2022/05/06 10:47:37;;;;;;;15.67;13.33;;;32.40;35.80;;;;;;5051123;28;20438;-76
2022/05/06 10:50:12;;;;;;;15.67;11.27;;;31.40;36.60;;;;;;5051048;28;20814;-77
2022/05/06 10:52:39;;;;;;;12.27;10.47;;;30.70;36.90;;;;;;5051711;28;20414;-76
2022/05/06 10:55:04;;;;;;;13.23;10.80;;;30.20;38.70;;;;;;5050732;28;20418;-77
2022/05/06 10:57:32;;;;;;;13.70;11.23;;;29.30;39.30;;;;;;5051245;28;20437;-77
2022/05/06 11:00:00;;;;;;;14.70;11.10;;;28.40;39.40;;;;;;5051355;28;20266;-76
2022/05/06 11:02:32;;;;;;;12.97;11.20;;;27.90;40.10;;;;;;5051385;28;20433;-77
2022/05/06 11:05:07;;;;;;;14.20;10.73;;;27.20;41.90;;;;;;5068323;28;20430;-77
2022/05/06 11:07:38;;;;;;;14.03;11.23;;;26.70;42.50;;;;;;5050826;28;20449;-77
2022/05/06 11:10:18;;;;;;;14.20;10.60;;;26.20;44.40;;;;;;5050650;28;20461;-75
2022/05/06 11:12:52;;;;;;;14.60;10.80;;;26.20;43.70;;;;;;5050980;28;20418;-77
2022/05/06 11:15:28;;;;;;;11.80;9.43;;;26.10;44.30;;;;;;5050882;28;20796;-77
2022/05/06 11:18:04;;;;;;;11.60;9.77;;;26.10;44.50;;;;;;5050757;28;20442;-76
2022/05/06 11:20:33;;;;;;;13.57;10.23;;;25.80;46.30;;;;;;5051907;28;20513;-79
2022/05/06 11:23:14;;;;;;;13.80;10.80;;;26.00;46.40;;;;;;5052690;28;20441;-77
2022/05/06 11:25:47;;;;;;;13.90;10.07;;;26.20;46.00;;;;;;5051823;28;20503;-77
2022/05/06 11:28:16;;;;;;;12.70;9.70;;;26.00;46.60;;;;;;5051490;28;20464;-77
2022/05/06 11:30:47;;;;;;;16.73;10.97;;;25.50;45.50;;;;;;5051344;28;20474;-78
2022/05/06 11:33:24;;;;;;;15.33;10.90;;;25.30;47.30;;;;;;5052483;28;20760;-76
2022/05/06 11:35:53;;;;;;;12.17;9.87;;;25.10;48.70;;;;;;5052686;28;20559;-80
2022/05/06 11:38:31;;;;;;;11.67;9.33;;;25.40;45.90;;;;;;5052941;28;20444;-78
2022/05/06 11:41:08;;;;;;;12.97;10.80;;;25.60;46.20;;;;;;5051303;28;20895;-78
2022/05/06 11:43:34;;;;;;;13.93;11.07;;;25.10;46.00;;;;;;5051932;28;20446;-78
2022/05/06 11:48:45;;;;;;;13.27;9.80;;;25.70;46.20;;;;;;5053491;28;20187;-78
2022/05/06 11:51:17;;;;;;;12.70;9.70;;;25.80;48.00;;;;;;5051447;28;20416;-77
2022/05/06 11:53:44;;;;;;;13.57;10.90;;;25.90;46.90;;;;;;5052651;28;20960;-78
2022/05/06 11:56:10;;;;;;;12.57;9.83;;;25.80;47.10;;;;;;5051149;28;20817;-77
2022/05/06 11:58:37;;;;;;;11.43;9.70;;;25.30;47.60;;;;;;5052859;28;20917;-77
2022/05/06 12:01:03;;;;;;;12.23;10.40;;;25.00;48.80;;;;;;5055394;28;20425;-78
2022/05/06 12:03:29;;;;;;;14.07;9.60;;;24.80;48.10;;;;;;5056009;28;20936;-78
2022/05/06 12:06:09;;;;;;;11.00;8.90;;;24.60;49.30;;;;;;5055406;28;20421;-78
2022/05/06 12:08:36;;;;;;;12.80;9.00;;;24.50;49.80;;;;;;5055562;28;20422;-78
2022/05/06 12:11:05;;;;;;;10.50;8.70;;;24.70;50.10;;;;;;5066757;22;20509;-80
2022/05/06 12:13:40;;;;;;;10.37;6.63;;;25.40;48.90;;;;;;5050627;28;20925;-81
2022/05/06 12:16:11;;;;;;;8.57;7.07;;;25.60;45.10;;;;;;5050811;28;20856;-81
2022/05/06 12:18:38;;;;;;;6.40;5.67;;;26.30;43.00;;;;;;5049466;28;20747;-80
2022/05/06 12:21:21;;;;;;;7.80;5.40;;;28.30;42.80;;;;;;5048589;28;21015;-81
2022/05/06 12:23:55;;;;;;;9.33;7.10;;;30.00;42.00;;;;;;5045875;28;20435;-80
2022/05/06 12:26:37;;;;;;;9.73;6.50;;;30.30;38.70;;;;;;5045561;28;20403;-80
2022/05/06 12:29:17;;;;;;;7.23;5.63;;;31.00;40.00;;;;;;5041283;28;20391;-81
2022/05/06 12:31:43;;;;;;;8.10;7.17;;;31.00;36.30;;;;;;5038954;28;20489;-80
2022/05/06 12:34:09;;;;;;;9.67;7.27;;;30.60;37.70;;;;;;5041244;28;20411;-80
2022/05/06 12:36:36;;;;;;;12.53;8.77;;;30.00;38.80;;;;;;5041115;28;20264;-80
2022/05/06 12:39:19;;;;;;;10.77;9.07;;;29.40;40.10;;;;;;5040389;28;20411;-81
2022/05/06 12:41:45;;;;;;;8.43;6.63;;;29.00;39.50;;;;;;5038284;28;20818;-81
2022/05/06 12:44:30;;;;;;;13.17;10.97;;;28.20;41.00;;;;;;5040326;28;20438;-81
2022/05/06 12:49:39;;;;;;;14.83;10.93;;;27.20;43.00;;;;;;5039623;28;20208;-80
2022/05/06 12:50:01;;;;;;;13.90;9.97;;;27.00;45.10;;;;;;5039777;28;20466;-80
2022/05/06 12:52:27;;;;;;;13.53;11.00;;;26.60;45.00;;;;;;5039783;28;20994;-80
2022/05/06 12:54:52;;;;;;;12.43;9.07;;;26.30;45.50;;;;;;5038222;28;20439;-79
2022/05/06 12:57:18;;;;;;;12.20;10.07;;;26.60;46.40;;;;;;5035120;28;20542;-79
2022/05/06 12:59:44;;;;;;;12.93;10.77;;;26.90;45.90;;;;;;5034953;28;20271;-80
2022/05/06 13:02:09;;;;;;;13.83;11.33;;;27.20;46.10;;;;;;5033405;28;20621;-80
2022/05/06 13:04:36;;;;;;;12.07;9.70;;;27.00;45.60;;;;;;5034858;28;20490;-80
2022/05/06 13:07:02;;;;;;;14.33;10.27;;;27.30;47.00;;;;;;5034939;28;20172;-80
2022/05/06 13:09:27;;;;;;;11.80;9.50;;;27.10;44.50;;;;;;5030382;28;20470;-83
2022/05/06 13:11:53;;;;;;;11.93;10.67;;;27.30;47.10;;;;;;5031003;28;20220;-82
2022/05/06 13:14:21;;;;;;;15.83;12.17;;;27.00;45.70;;;;;;5034721;28;20185;-83
2022/05/06 13:16:48;;;;;;;13.80;11.07;;;27.30;45.80;;;;;;5034471;28;20553;-82
2022/05/06 13:19:13;;;;;;;16.50;13.70;;;27.60;46.80;;;;;;5032938;28;21044;-84
2022/05/06 13:21:39;;;;;;;12.50;10.80;;;26.30;45.50;;;;;;5032840;28;20446;-85
2022/05/06 13:24:07;;;;;;;13.33;11.47;;;26.30;47.10;;;;;;5032719;28;20169;-82
2022/05/06 13:26:36;;;;;;;13.30;11.90;;;26.30;47.10;;;;;;5032519;28;20172;-81
2022/05/06 13:29:06;;;;;;;13.83;12.30;;;26.80;47.60;;;;;;5034141;28;20411;-84